Terminal Aerodrome Forecast
Issued by NWS

Home | Current Version | Previous Version | Text Only | Print | Product List | Glossary On
Versions: 1 2 3 4 5 6 7 8 9 10 11 12 13 14 15 16 17 18 19 20
000
FTUS45 KBOU 162337
TAFAPA
TAF
KAPA 162337Z 1700/1724 VRB04KT P6SM FEW150 SCT220
     FM170200 18006KT P6SM SCT220
     FM172000 12006KT P6SM SCT220=

USA.gov is the U.S. government's official web portal to all federal, state and local government web resources and services.